sensor_id;sensor_type;location;lat;lon;timestamp;P1;durP1;ratioP1;P2;durP2;ratioP2
30872;SDS011;17579;42.690;2.586;2022-12-18T00:01:57;2.45;;;2.25;;
30872;SDS011;17579;42.690;2.586;2022-12-18T00:04:27;3.10;;;2.05;;
30872;SDS011;17579;42.690;2.586;2022-12-18T00:06:53;6.20;;;2.38;;
30872;SDS011;17579;42.690;2.586;2022-12-18T00:09:19;2.85;;;1.95;;
30872;SDS011;17579;42.690;2.586;2022-12-18T00:11:45;4.07;;;2.17;;
30872;SDS011;17579;42.690;2.586;2022-12-18T00:14:11;2.20;;;2.00;;
30872;SDS011;17579;42.690;2.586;2022-12-18T00:16:38;2.50;;;2.22;;
30872;SDS011;17579;42.690;2.586;2022-12-18T00:19:04;2.45;;;1.88;;
30872;SDS011;17579;42.690;2.586;2022-12-18T00:21:31;3.10;;;1.95;;
30872;SDS011;17579;42.690;2.586;2022-12-18T00:23:58;3.17;;;2.10;;
30872;SDS011;17579;42.690;2.586;2022-12-18T00:26:25;2.97;;;2.67;;
30872;SDS011;17579;42.690;2.586;2022-12-18T00:28:52;4.18;;;2.50;;
30872;SDS011;17579;42.690;2.586;2022-12-18T00:31:21;2.80;;;2.60;;
30872;SDS011;17579;42.690;2.586;2022-12-18T00:33:48;3.00;;;2.40;;
30872;SDS011;17579;42.690;2.586;2022-12-18T00:36:15;2.67;;;2.25;;
30872;SDS011;17579;42.690;2.586;2022-12-18T00:38:43;3.20;;;2.78;;
30872;SDS011;17579;42.690;2.586;2022-12-18T00:41:09;2.50;;;2.28;;
30872;SDS011;17579;42.690;2.586;2022-12-18T00:43:37;3.28;;;2.75;;
30872;SDS011;17579;42.690;2.586;2022-12-18T00:46:04;2.85;;;2.30;;
30872;SDS011;17579;42.690;2.586;2022-12-18T00:48:30;2.58;;;2.22;;
30872;SDS011;17579;42.690;2.586;2022-12-18T00:50:56;2.47;;;2.15;;
30872;SDS011;17579;42.690;2.586;2022-12-18T00:53:21;2.92;;;2.45;;
30872;SDS011;17579;42.690;2.586;2022-12-18T00:55:47;3.08;;;2.38;;
30872;SDS011;17579;42.690;2.586;2022-12-18T00:58:13;2.78;;;2.10;;
30872;SDS011;17579;42.690;2.586;2022-12-18T01:00:40;2.40;;;2.10;;
30872;SDS011;17579;42.690;2.586;2022-12-18T01:03:06;4.88;;;2.05;;
30872;SDS011;17579;42.690;2.586;2022-12-18T01:05:32;3.30;;;2.35;;
30872;SDS011;17579;42.690;2.586;2022-12-18T01:07:58;3.15;;;2.35;;
30872;SDS011;17579;42.690;2.586;2022-12-18T01:10:24;2.60;;;2.40;;
30872;SDS011;17579;42.690;2.586;2022-12-18T01:12:50;2.38;;;2.13;;
30872;SDS011;17579;42.690;2.586;2022-12-18T01:15:16;2.45;;;2.25;;
30872;SDS011;17579;42.690;2.586;2022-12-18T01:17:42;2.20;;;1.98;;
30872;SDS011;17579;42.690;2.586;2022-12-18T01:20:09;3.78;;;2.30;;
30872;SDS011;17579;42.690;2.586;2022-12-18T01:22:35;2.90;;;2.30;;
30872;SDS011;17579;42.690;2.586;2022-12-18T01:25:01;3.60;;;2.88;;
30872;SDS011;17579;42.690;2.586;2022-12-18T01:27:28;3.50;;;2.83;;
30872;SDS011;17579;42.690;2.586;2022-12-18T01:29:53;3.50;;;2.50;;
30872;SDS011;17579;42.690;2.586;2022-12-18T01:32:19;2.83;;;2.50;;
30872;SDS011;17579;42.690;2.586;2022-12-18T01:34:45;4.28;;;2.60;;
30872;SDS011;17579;42.690;2.586;2022-12-18T01:37:10;3.30;;;2.47;;
30872;SDS011;17579;42.690;2.586;2022-12-18T01:39:36;3.53;;;2.58;;
30872;SDS011;17579;42.690;2.586;2022-12-18T01:42:02;2.97;;;2.67;;
30872;SDS011;17579;42.690;2.586;2022-12-18T01:50:12;2.38;;;2.17;;
30872;SDS011;17579;42.690;2.586;2022-12-18T01:52:41;2.88;;;2.63;;
30872;SDS011;17579;42.690;2.586;2022-12-18T01:55:09;2.83;;;2.60;;
30872;SDS011;17579;42.690;2.586;2022-12-18T01:57:35;3.47;;;2.83;;
30872;SDS011;17579;42.690;2.586;2022-12-18T02:00:05;2.97;;;2.67;;
30872;SDS011;17579;42.690;2.586;2022-12-18T02:02:34;4.30;;;2.78;;
30872;SDS011;17579;42.690;2.586;2022-12-18T02:04:59;3.58;;;3.00;;
30872;SDS011;17579;42.690;2.586;2022-12-18T02:10:20;3.03;;;2.72;;
30872;SDS011;17579;42.690;2.586;2022-12-18T02:12:57;2.85;;;2.65;;
30872;SDS011;17579;42.690;2.586;2022-12-18T02:15:42;3.05;;;2.75;;
30872;SDS011;17579;42.690;2.586;2022-12-18T02:18:23;4.13;;;2.78;;
30872;SDS011;17579;42.690;2.586;2022-12-18T02:21:00;3.15;;;2.85;;
30872;SDS011;17579;42.690;2.586;2022-12-18T02:23:56;3.72;;;3.13;;
30872;SDS011;17579;42.690;2.586;2022-12-18T02:29:23;3.50;;;2.88;;
30872;SDS011;17579;42.690;2.586;2022-12-18T02:31:53;3.20;;;2.90;;
30872;SDS011;17579;42.690;2.586;2022-12-18T02:34:23;4.03;;;2.78;;
30872;SDS011;17579;42.690;2.586;2022-12-18T02:36:51;5.07;;;2.75;;
30872;SDS011;17579;42.690;2.586;2022-12-18T02:39:19;3.53;;;2.85;;
30872;SDS011;17579;42.690;2.586;2022-12-18T02:41:47;3.20;;;2.90;;
30872;SDS011;17579;42.690;2.586;2022-12-18T02:44:13;4.90;;;3.00;;
30872;SDS011;17579;42.690;2.586;2022-12-18T02:46:41;3.13;;;2.83;;
30872;SDS011;17579;42.690;2.586;2022-12-18T02:49:16;2.53;;;2.33;;
30872;SDS011;17579;42.690;2.586;2022-12-18T02:57:55;4.40;;;2.80;;
30872;SDS011;17579;42.690;2.586;2022-12-18T03:00:30;3.15;;;2.85;;
30872;SDS011;17579;42.690;2.586;2022-12-18T03:03:13;3.13;;;2.83;;
30872;SDS011;17579;42.690;2.586;2022-12-18T03:06:04;2.95;;;2.58;;
30872;SDS011;17579;42.690;2.586;2022-12-18T03:08:38;3.25;;;2.85;;
30872;SDS011;17579;42.690;2.586;2022-12-18T03:11:09;2.60;;;2.33;;
30872;SDS011;17579;42.690;2.586;2022-12-18T03:13:37;6.05;;;2.80;;
30872;SDS011;17579;42.690;2.586;2022-12-18T03:16:24;3.50;;;3.00;;
30872;SDS011;17579;42.690;2.586;2022-12-18T03:18:54;3.13;;;2.30;;
30872;SDS011;17579;42.690;2.586;2022-12-18T03:21:33;4.28;;;3.03;;
30872;SDS011;17579;42.690;2.586;2022-12-18T03:24:04;2.67;;;2.47;;
30872;SDS011;17579;42.690;2.586;2022-12-18T03:26:32;3.88;;;2.20;;
30872;SDS011;17579;42.690;2.586;2022-12-18T03:29:00;3.80;;;2.30;;
30872;SDS011;17579;42.690;2.586;2022-12-18T03:31:31;2.72;;;2.50;;
30872;SDS011;17579;42.690;2.586;2022-12-18T03:33:58;3.25;;;2.58;;
30872;SDS011;17579;42.690;2.586;2022-12-18T03:36:28;2.85;;;2.50;;
30872;SDS011;17579;42.690;2.586;2022-12-18T03:38:54;2.33;;;2.13;;
30872;SDS011;17579;42.690;2.586;2022-12-18T03:47:06;2.30;;;2.10;;
30872;SDS011;17579;42.690;2.586;2022-12-18T03:49:40;3.47;;;2.40;;
30872;SDS011;17579;42.690;2.586;2022-12-18T03:52:32;2.83;;;2.42;;
30872;SDS011;17579;42.690;2.586;2022-12-18T03:55:03;3.63;;;3.17;;
30872;SDS011;17579;42.690;2.586;2022-12-18T03:57:31;2.92;;;2.38;;
30872;SDS011;17579;42.690;2.586;2022-12-18T04:00:04;4.22;;;2.88;;
30872;SDS011;17579;42.690;2.586;2022-12-18T04:02:36;3.83;;;2.90;;
30872;SDS011;17579;42.690;2.586;2022-12-18T04:05:04;6.68;;;2.55;;
30872;SDS011;17579;42.690;2.586;2022-12-18T04:07:32;4.55;;;3.35;;
30872;SDS011;17579;42.690;2.586;2022-12-18T04:09:58;3.25;;;2.72;;
30872;SDS011;17579;42.690;2.586;2022-12-18T04:12:26;3.45;;;2.88;;
30872;SDS011;17579;42.690;2.586;2022-12-18T04:14:54;3.15;;;2.65;;
30872;SDS011;17579;42.690;2.586;2022-12-18T04:17:20;3.92;;;3.10;;
30872;SDS011;17579;42.690;2.586;2022-12-18T04:19:46;3.55;;;2.53;;
30872;SDS011;17579;42.690;2.586;2022-12-18T04:22:12;3.40;;;2.88;;
30872;SDS011;17579;42.690;2.586;2022-12-18T04:24:37;5.45;;;3.10;;
30872;SDS011;17579;42.690;2.586;2022-12-18T04:27:03;4.10;;;3.08;;
30872;SDS011;17579;42.690;2.586;2022-12-18T04:29:29;4.32;;;2.95;;
30872;SDS011;17579;42.690;2.586;2022-12-18T04:31:54;3.15;;;2.83;;
30872;SDS011;17579;42.690;2.586;2022-12-18T04:34:20;3.17;;;2.80;;
30872;SDS011;17579;42.690;2.586;2022-12-18T04:36:46;3.40;;;3.10;;
30872;SDS011;17579;42.690;2.586;2022-12-18T04:39:12;4.35;;;3.30;;
30872;SDS011;17579;42.690;2.586;2022-12-18T04:41:37;3.08;;;2.78;;
30872;SDS011;17579;42.690;2.586;2022-12-18T04:44:03;3.95;;;3.30;;
30872;SDS011;17579;42.690;2.586;2022-12-18T04:46:29;3.95;;;3.20;;
30872;SDS011;17579;42.690;2.586;2022-12-18T04:48:55;3.65;;;3.00;;
30872;SDS011;17579;42.690;2.586;2022-12-18T04:51:20;4.53;;;2.80;;
30872;SDS011;17579;42.690;2.586;2022-12-18T04:53:46;3.03;;;2.53;;
30872;SDS011;17579;42.690;2.586;2022-12-18T04:56:12;2.88;;;2.30;;
30872;SDS011;17579;42.690;2.586;2022-12-18T04:58:40;3.33;;;2.80;;
30872;SDS011;17579;42.690;2.586;2022-12-18T05:01:07;3.15;;;2.85;;
30872;SDS011;17579;42.690;2.586;2022-12-18T05:03:34;2.65;;;2.42;;
30872;SDS011;17579;42.690;2.586;2022-12-18T05:06:00;3.28;;;2.65;;
30872;SDS011;17579;42.690;2.586;2022-12-18T05:08:26;2.45;;;2.25;;
30872;SDS011;17579;42.690;2.586;2022-12-18T05:13:31;3.70;;;3.30;;
30872;SDS011;17579;42.690;2.586;2022-12-18T05:15:57;3.65;;;3.20;;
30872;SDS011;17579;42.690;2.586;2022-12-18T05:18:23;3.22;;;2.72;;
30872;SDS011;17579;42.690;2.586;2022-12-18T05:20:50;6.35;;;3.00;;
30872;SDS011;17579;42.690;2.586;2022-12-18T05:23:16;4.57;;;3.30;;
30872;SDS011;17579;42.690;2.586;2022-12-18T05:25:42;3.40;;;2.63;;
30872;SDS011;17579;42.690;2.586;2022-12-18T05:28:14;3.05;;;2.75;;
30872;SDS011;17579;42.690;2.586;2022-12-18T05:30:40;3.75;;;2.90;;
30872;SDS011;17579;42.690;2.586;2022-12-18T05:33:07;4.72;;;3.53;;
30872;SDS011;17579;42.690;2.586;2022-12-18T05:35:32;3.38;;;2.90;;
30872;SDS011;17579;42.690;2.586;2022-12-18T05:37:58;5.28;;;3.35;;
30872;SDS011;17579;42.690;2.586;2022-12-18T05:40:23;4.72;;;2.60;;
30872;SDS011;17579;42.690;2.586;2022-12-18T05:42:49;4.28;;;3.03;;
30872;SDS011;17579;42.690;2.586;2022-12-18T05:45:14;3.83;;;2.88;;
30872;SDS011;17579;42.690;2.586;2022-12-18T05:47:40;3.55;;;2.85;;
30872;SDS011;17579;42.690;2.586;2022-12-18T05:50:06;4.03;;;2.92;;
30872;SDS011;17579;42.690;2.586;2022-12-18T05:52:32;3.47;;;3.17;;
30872;SDS011;17579;42.690;2.586;2022-12-18T05:54:57;5.00;;;2.63;;
30872;SDS011;17579;42.690;2.586;2022-12-18T05:57:24;3.20;;;2.58;;
30872;SDS011;17579;42.690;2.586;2022-12-18T05:59:50;2.53;;;2.05;;
30872;SDS011;17579;42.690;2.586;2022-12-18T06:02:16;4.10;;;2.67;;
30872;SDS011;17579;42.690;2.586;2022-12-18T06:04:41;2.45;;;2.05;;
30872;SDS011;17579;42.690;2.586;2022-12-18T06:07:07;4.85;;;2.38;;
30872;SDS011;17579;42.690;2.586;2022-12-18T06:09:33;5.05;;;2.67;;
30872;SDS011;17579;42.690;2.586;2022-12-18T06:11:58;3.50;;;2.67;;
30872;SDS011;17579;42.690;2.586;2022-12-18T06:14:24;2.53;;;2.30;;
30872;SDS011;17579;42.690;2.586;2022-12-18T06:16:50;2.83;;;2.47;;
30872;SDS011;17579;42.690;2.586;2022-12-18T06:19:17;5.80;;;2.70;;
30872;SDS011;17579;42.690;2.586;2022-12-18T06:21:42;2.88;;;2.55;;
30872;SDS011;17579;42.690;2.586;2022-12-18T06:24:08;3.45;;;2.38;;
30872;SDS011;17579;42.690;2.586;2022-12-18T06:26:33;2.97;;;2.53;;
30872;SDS011;17579;42.690;2.586;2022-12-18T06:29:01;3.40;;;2.30;;
30872;SDS011;17579;42.690;2.586;2022-12-18T06:31:27;2.50;;;2.30;;
30872;SDS011;17579;42.690;2.586;2022-12-18T06:33:52;5.97;;;2.75;;
30872;SDS011;17579;42.690;2.586;2022-12-18T06:36:18;3.35;;;2.40;;
30872;SDS011;17579;42.690;2.586;2022-12-18T06:38:44;3.30;;;2.40;;
30872;SDS011;17579;42.690;2.586;2022-12-18T06:41:11;3.50;;;2.58;;
30872;SDS011;17579;42.690;2.586;2022-12-18T06:43:44;3.13;;;2.72;;
30872;SDS011;17579;42.690;2.586;2022-12-18T06:46:10;3.22;;;2.80;;
30872;SDS011;17579;42.690;2.586;2022-12-18T06:48:37;2.70;;;2.40;;
30872;SDS011;17579;42.690;2.586;2022-12-18T06:51:03;3.03;;;2.70;;
30872;SDS011;17579;42.690;2.586;2022-12-18T06:53:29;3.00;;;2.17;;
30872;SDS011;17579;42.690;2.586;2022-12-18T06:56:04;4.20;;;2.63;;
30872;SDS011;17579;42.690;2.586;2022-12-18T06:58:32;4.13;;;2.33;;
30872;SDS011;17579;42.690;2.586;2022-12-18T07:01:01;2.97;;;2.35;;
30872;SDS011;17579;42.690;2.586;2022-12-18T07:03:28;2.55;;;2.28;;
30872;SDS011;17579;42.690;2.586;2022-12-18T07:05:53;3.17;;;2.42;;
30872;SDS011;17579;42.690;2.586;2022-12-18T07:08:19;2.53;;;2.33;;
30872;SDS011;17579;42.690;2.586;2022-12-18T07:10:44;2.53;;;2.28;;
30872;SDS011;17579;42.690;2.586;2022-12-18T07:13:10;3.70;;;2.58;;
30872;SDS011;17579;42.690;2.586;2022-12-18T07:15:35;4.03;;;3.03;;
30872;SDS011;17579;42.690;2.586;2022-12-18T07:18:01;3.42;;;2.90;;
30872;SDS011;17579;42.690;2.586;2022-12-18T07:20:26;5.30;;;3.30;;
30872;SDS011;17579;42.690;2.586;2022-12-18T07:22:52;3.83;;;3.28;;
30872;SDS011;17579;42.690;2.586;2022-12-18T07:25:18;5.32;;;3.72;;
30872;SDS011;17579;42.690;2.586;2022-12-18T07:27:43;6.35;;;4.07;;
30872;SDS011;17579;42.690;2.586;2022-12-18T07:30:09;5.65;;;3.63;;
30872;SDS011;17579;42.690;2.586;2022-12-18T07:32:35;4.22;;;3.65;;
30872;SDS011;17579;42.690;2.586;2022-12-18T07:35:01;4.57;;;3.97;;
30872;SDS011;17579;42.690;2.586;2022-12-18T07:37:26;6.30;;;3.95;;
30872;SDS011;17579;42.690;2.586;2022-12-18T07:39:52;4.22;;;3.65;;
30872;SDS011;17579;42.690;2.586;2022-12-18T07:42:17;4.75;;;3.60;;
30872;SDS011;17579;42.690;2.586;2022-12-18T07:44:55;7.05;;;3.40;;
30872;SDS011;17579;42.690;2.586;2022-12-18T07:47:20;4.25;;;3.20;;
30872;SDS011;17579;42.690;2.586;2022-12-18T07:49:46;6.38;;;4.28;;
30872;SDS011;17579;42.690;2.586;2022-12-18T07:52:11;5.03;;;3.47;;
30872;SDS011;17579;42.690;2.586;2022-12-18T07:54:37;3.90;;;3.50;;
30872;SDS011;17579;42.690;2.586;2022-12-18T07:57:03;6.40;;;3.55;;
30872;SDS011;17579;42.690;2.586;2022-12-18T07:59:29;4.03;;;3.25;;
30872;SDS011;17579;42.690;2.586;2022-12-18T08:01:54;4.60;;;3.72;;
30872;SDS011;17579;42.690;2.586;2022-12-18T08:04:20;4.28;;;3.50;;
30872;SDS011;17579;42.690;2.586;2022-12-18T08:06:45;5.13;;;2.90;;
30872;SDS011;17579;42.690;2.586;2022-12-18T08:09:11;4.72;;;2.58;;
30872;SDS011;17579;42.690;2.586;2022-12-18T08:11:37;4.82;;;3.03;;
30872;SDS011;17579;42.690;2.586;2022-12-18T08:14:02;3.20;;;2.63;;
30872;SDS011;17579;42.690;2.586;2022-12-18T08:16:28;3.45;;;3.00;;
30872;SDS011;17579;42.690;2.586;2022-12-18T08:18:53;2.85;;;2.55;;
30872;SDS011;17579;42.690;2.586;2022-12-18T08:21:21;4.88;;;3.00;;
30872;SDS011;17579;42.690;2.586;2022-12-18T08:23:50;3.22;;;2.42;;
30872;SDS011;17579;42.690;2.586;2022-12-18T08:26:16;3.13;;;2.50;;
30872;SDS011;17579;42.690;2.586;2022-12-18T08:28:42;3.50;;;2.95;;
30872;SDS011;17579;42.690;2.586;2022-12-18T08:31:08;2.00;;;1.85;;
30872;SDS011;17579;42.690;2.586;2022-12-18T08:33:34;2.63;;;2.42;;
30872;SDS011;17579;42.690;2.586;2022-12-18T08:36:02;7.10;;;2.63;;
30872;SDS011;17579;42.690;2.586;2022-12-18T08:38:31;3.85;;;2.40;;
30872;SDS011;17579;42.690;2.586;2022-12-18T08:40:58;4.22;;;2.35;;
30872;SDS011;17579;42.690;2.586;2022-12-18T08:43:25;3.47;;;2.80;;
30872;SDS011;17579;42.690;2.586;2022-12-18T08:46:02;2.80;;;2.40;;
30872;SDS011;17579;42.690;2.586;2022-12-18T08:48:28;3.00;;;2.70;;
30872;SDS011;17579;42.690;2.586;2022-12-18T08:50:57;2.97;;;2.70;;
30872;SDS011;17579;42.690;2.586;2022-12-18T08:53:24;3.15;;;2.85;;
30872;SDS011;17579;42.690;2.586;2022-12-18T08:55:50;3.25;;;2.53;;
30872;SDS011;17579;42.690;2.586;2022-12-18T08:58:15;4.10;;;3.08;;
30872;SDS011;17579;42.690;2.586;2022-12-18T09:00:41;6.65;;;3.50;;
30872;SDS011;17579;42.690;2.586;2022-12-18T09:03:13;4.85;;;3.20;;
30872;SDS011;17579;42.690;2.586;2022-12-18T09:05:39;4.20;;;2.92;;
30872;SDS011;17579;42.690;2.586;2022-12-18T09:08:05;4.10;;;3.60;;
30872;SDS011;17579;42.690;2.586;2022-12-18T09:10:31;2.65;;;2.45;;
30872;SDS011;17579;42.690;2.586;2022-12-18T09:12:57;2.50;;;2.17;;
30872;SDS011;17579;42.690;2.586;2022-12-18T09:15:22;2.95;;;2.65;;
30872;SDS011;17579;42.690;2.586;2022-12-18T09:17:48;4.38;;;3.05;;
30872;SDS011;17579;42.690;2.586;2022-12-18T09:20:15;7.05;;;3.17;;
30872;SDS011;17579;42.690;2.586;2022-12-18T09:22:41;4.15;;;3.35;;
30872;SDS011;17579;42.690;2.586;2022-12-18T09:25:07;3.83;;;3.42;;
30872;SDS011;17579;42.690;2.586;2022-12-18T09:27:33;6.13;;;4.18;;
30872;SDS011;17579;42.690;2.586;2022-12-18T09:29:59;6.07;;;4.50;;
30872;SDS011;17579;42.690;2.586;2022-12-18T09:32:25;7.00;;;4.03;;
30872;SDS011;17579;42.690;2.586;2022-12-18T09:34:50;5.68;;;4.40;;
30872;SDS011;17579;42.690;2.586;2022-12-18T09:37:16;6.20;;;4.07;;
30872;SDS011;17579;42.690;2.586;2022-12-18T09:39:41;7.30;;;4.40;;
30872;SDS011;17579;42.690;2.586;2022-12-18T09:42:09;5.45;;;3.92;;
30872;SDS011;17579;42.690;2.586;2022-12-18T09:44:46;6.13;;;4.18;;
30872;SDS011;17579;42.690;2.586;2022-12-18T09:47:17;6.25;;;4.05;;
30872;SDS011;17579;42.690;2.586;2022-12-18T09:49:49;5.68;;;4.10;;
30872;SDS011;17579;42.690;2.586;2022-12-18T09:52:34;9.50;;;4.20;;
30872;SDS011;17579;42.690;2.586;2022-12-18T09:55:14;7.95;;;4.03;;
30872;SDS011;17579;42.690;2.586;2022-12-18T09:57:55;7.32;;;3.67;;
30872;SDS011;17579;42.690;2.586;2022-12-18T10:00:24;6.50;;;4.00;;
30872;SDS011;17579;42.690;2.586;2022-12-18T10:02:51;4.85;;;4.05;;
30872;SDS011;17579;42.690;2.586;2022-12-18T10:08:25;8.18;;;4.65;;
30872;SDS011;17579;42.690;2.586;2022-12-18T10:14:09;4.88;;;4.38;;
30872;SDS011;17579;42.690;2.586;2022-12-18T10:19:58;5.55;;;3.70;;
30872;SDS011;17579;42.690;2.586;2022-12-18T10:28:27;6.03;;;4.45;;
30872;SDS011;17579;42.690;2.586;2022-12-18T10:30:55;8.55;;;4.28;;
30872;SDS011;17579;42.690;2.586;2022-12-18T10:33:22;8.27;;;5.20;;
30872;SDS011;17579;42.690;2.586;2022-12-18T10:35:50;10.88;;;5.40;;
30872;SDS011;17579;42.690;2.586;2022-12-18T10:38:20;6.25;;;4.78;;
30872;SDS011;17579;42.690;2.586;2022-12-18T10:40:52;5.65;;;3.78;;
30872;SDS011;17579;42.690;2.586;2022-12-18T10:48:48;7.03;;;4.57;;
30872;SDS011;17579;42.690;2.586;2022-12-18T10:51:21;8.93;;;4.53;;
30872;SDS011;17579;42.690;2.586;2022-12-18T10:53:55;7.70;;;4.45;;
30872;SDS011;17579;42.690;2.586;2022-12-18T10:56:25;7.25;;;5.25;;
30872;SDS011;17579;42.690;2.586;2022-12-18T11:01:50;8.68;;;5.35;;
30872;SDS011;17579;42.690;2.586;2022-12-18T11:04:27;6.07;;;5.10;;
30872;SDS011;17579;42.690;2.586;2022-12-18T11:06:58;10.52;;;6.00;;
30872;SDS011;17579;42.690;2.586;2022-12-18T11:09:30;7.60;;;6.05;;
30872;SDS011;17579;42.690;2.586;2022-12-18T11:12:04;8.57;;;5.72;;
30872;SDS011;17579;42.690;2.586;2022-12-18T11:14:47;11.63;;;6.38;;
30872;SDS011;17579;42.690;2.586;2022-12-18T11:19:56;8.90;;;5.35;;
30872;SDS011;17579;42.690;2.586;2022-12-18T11:22:30;7.43;;;5.38;;
30872;SDS011;17579;42.690;2.586;2022-12-18T11:24:59;7.72;;;5.60;;
30872;SDS011;17579;42.690;2.586;2022-12-18T11:27:37;7.22;;;4.85;;
30872;SDS011;17579;42.690;2.586;2022-12-18T11:35:44;6.65;;;5.32;;
30872;SDS011;17579;42.690;2.586;2022-12-18T11:38:31;7.93;;;5.28;;
30872;SDS011;17579;42.690;2.586;2022-12-18T11:44:15;13.40;;;5.88;;
30872;SDS011;17579;42.690;2.586;2022-12-18T11:46:50;7.15;;;5.65;;
30872;SDS011;17579;42.690;2.586;2022-12-18T11:49:32;8.13;;;6.13;;
30872;SDS011;17579;42.690;2.586;2022-12-18T11:54:52;6.90;;;5.13;;
30872;SDS011;17579;42.690;2.586;2022-12-18T11:57:35;7.53;;;5.13;;
30872;SDS011;17579;42.690;2.586;2022-12-18T12:00:20;7.47;;;5.60;;
30872;SDS011;17579;42.690;2.586;2022-12-18T12:05:58;8.63;;;5.35;;
30872;SDS011;17579;42.690;2.586;2022-12-18T12:08:52;7.90;;;5.15;;
30872;SDS011;17579;42.690;2.586;2022-12-18T12:11:41;6.45;;;4.88;;
30872;SDS011;17579;42.690;2.586;2022-12-18T12:14:43;9.32;;;5.85;;
30872;SDS011;17579;42.690;2.586;2022-12-18T12:17:21;7.97;;;4.75;;
30872;SDS011;17579;42.690;2.586;2022-12-18T12:23:05;5.70;;;4.78;;
30872;SDS011;17579;42.690;2.586;2022-12-18T12:25:46;8.68;;;5.00;;
30872;SDS011;17579;42.690;2.586;2022-12-18T12:28:35;6.85;;;5.35;;
30872;SDS011;17579;42.690;2.586;2022-12-18T12:31:23;5.47;;;4.78;;
30872;SDS011;17579;42.690;2.586;2022-12-18T12:39:44;6.65;;;5.95;;
30872;SDS011;17579;42.690;2.586;2022-12-18T12:42:18;7.18;;;5.70;;
30872;SDS011;17579;42.690;2.586;2022-12-18T12:45:05;9.00;;;5.70;;
30872;SDS011;17579;42.690;2.586;2022-12-18T12:47:33;5.65;;;4.95;;
30872;SDS011;17579;42.690;2.586;2022-12-18T12:50:05;6.45;;;4.95;;
30872;SDS011;17579;42.690;2.586;2022-12-18T12:52:38;7.45;;;5.18;;
30872;SDS011;17579;42.690;2.586;2022-12-18T12:55:12;9.55;;;5.85;;
30872;SDS011;17579;42.690;2.586;2022-12-18T12:57:45;10.07;;;5.28;;
30872;SDS011;17579;42.690;2.586;2022-12-18T13:00:18;5.50;;;4.68;;
30872;SDS011;17579;42.690;2.586;2022-12-18T13:08:29;6.22;;;4.90;;
30872;SDS011;17579;42.690;2.586;2022-12-18T13:10:57;6.03;;;5.25;;
30872;SDS011;17579;42.690;2.586;2022-12-18T13:13:47;5.25;;;4.75;;
30872;SDS011;17579;42.690;2.586;2022-12-18T13:16:21;6.15;;;4.38;;
30872;SDS011;17579;42.690;2.586;2022-12-18T13:18:52;5.35;;;4.85;;
30872;SDS011;17579;42.690;2.586;2022-12-18T13:21:26;7.75;;;5.57;;
30872;SDS011;17579;42.690;2.586;2022-12-18T13:23:54;6.30;;;5.70;;
30872;SDS011;17579;42.690;2.586;2022-12-18T13:29:04;6.47;;;4.90;;
30872;SDS011;17579;42.690;2.586;2022-12-18T13:34:27;8.13;;;4.25;;
30872;SDS011;17579;42.690;2.586;2022-12-18T13:36:56;5.35;;;4.75;;
30872;SDS011;17579;42.690;2.586;2022-12-18T13:39:42;6.75;;;5.15;;
30872;SDS011;17579;42.690;2.586;2022-12-18T13:48:01;4.60;;;4.03;;
30872;SDS011;17579;42.690;2.586;2022-12-18T13:50:28;8.90;;;4.97;;
30872;SDS011;17579;42.690;2.586;2022-12-18T13:52:54;7.65;;;5.07;;
30872;SDS011;17579;42.690;2.586;2022-12-18T13:55:20;4.38;;;3.95;;
30872;SDS011;17579;42.690;2.586;2022-12-18T13:57:47;5.28;;;4.38;;
30872;SDS011;17579;42.690;2.586;2022-12-18T14:00:26;5.32;;;4.50;;
30872;SDS011;17579;42.690;2.586;2022-12-18T14:02:54;4.47;;;4.07;;
30872;SDS011;17579;42.690;2.586;2022-12-18T14:05:28;4.05;;;3.67;;
30872;SDS011;17579;42.690;2.586;2022-12-18T14:07:59;6.35;;;4.90;;
30872;SDS011;17579;42.690;2.586;2022-12-18T14:10:28;5.05;;;4.53;;
30872;SDS011;17579;42.690;2.586;2022-12-18T14:12:54;6.18;;;4.55;;
30872;SDS011;17579;42.690;2.586;2022-12-18T14:20:59;6.10;;;4.43;;
30872;SDS011;17579;42.690;2.586;2022-12-18T14:23:28;6.82;;;4.88;;
30872;SDS011;17579;42.690;2.586;2022-12-18T14:25:56;5.82;;;3.83;;
30872;SDS011;17579;42.690;2.586;2022-12-18T14:28:22;5.07;;;4.15;;
30872;SDS011;17579;42.690;2.586;2022-12-18T14:30:48;5.13;;;4.70;;
30872;SDS011;17579;42.690;2.586;2022-12-18T14:33:21;4.55;;;4.15;;
30872;SDS011;17579;42.690;2.586;2022-12-18T14:35:52;4.65;;;3.92;;
30872;SDS011;17579;42.690;2.586;2022-12-18T14:38:30;6.30;;;4.53;;
30872;SDS011;17579;42.690;2.586;2022-12-18T14:41:05;5.10;;;4.30;;
30872;SDS011;17579;42.690;2.586;2022-12-18T14:43:39;5.53;;;4.07;;
30872;SDS011;17579;42.690;2.586;2022-12-18T14:46:25;5.25;;;4.70;;
30872;SDS011;17579;42.690;2.586;2022-12-18T14:49:02;4.63;;;4.10;;
30872;SDS011;17579;42.690;2.586;2022-12-18T14:51:41;5.63;;;3.75;;
30872;SDS011;17579;42.690;2.586;2022-12-18T14:54:17;6.90;;;4.68;;
30872;SDS011;17579;42.690;2.586;2022-12-18T14:56:45;4.03;;;3.42;;
30872;SDS011;17579;42.690;2.586;2022-12-18T14:59:15;5.80;;;3.90;;
30872;SDS011;17579;42.690;2.586;2022-12-18T15:04:42;3.70;;;3.17;;
30872;SDS011;17579;42.690;2.586;2022-12-18T15:07:21;5.25;;;3.90;;
30872;SDS011;17579;42.690;2.586;2022-12-18T15:21:00;4.97;;;3.83;;
30872;SDS011;17579;42.690;2.586;2022-12-18T15:23:44;5.68;;;3.65;;
30872;SDS011;17579;42.690;2.586;2022-12-18T15:26:15;4.85;;;3.50;;
30872;SDS011;17579;42.690;2.586;2022-12-18T15:28:44;3.53;;;3.17;;
30872;SDS011;17579;42.690;2.586;2022-12-18T15:36:39;3.20;;;2.72;;
30872;SDS011;17579;42.690;2.586;2022-12-18T15:39:05;3.63;;;2.63;;
30872;SDS011;17579;42.690;2.586;2022-12-18T15:41:31;2.95;;;2.70;;
30872;SDS011;17579;42.690;2.586;2022-12-18T15:44:01;4.13;;;3.13;;
30872;SDS011;17579;42.690;2.586;2022-12-18T15:46:28;3.03;;;2.63;;
30872;SDS011;17579;42.690;2.586;2022-12-18T15:48:54;3.40;;;2.90;;
30872;SDS011;17579;42.690;2.586;2022-12-18T15:51:24;3.13;;;2.70;;
30872;SDS011;17579;42.690;2.586;2022-12-18T15:53:54;2.53;;;2.33;;
30872;SDS011;17579;42.690;2.586;2022-12-18T15:56:21;2.90;;;2.58;;
30872;SDS011;17579;42.690;2.586;2022-12-18T15:58:59;3.03;;;2.60;;
30872;SDS011;17579;42.690;2.586;2022-12-18T16:01:27;3.22;;;2.75;;
30872;SDS011;17579;42.690;2.586;2022-12-18T16:03:55;3.85;;;2.50;;
30872;SDS011;17579;42.690;2.586;2022-12-18T16:06:22;3.08;;;2.60;;
30872;SDS011;17579;42.690;2.586;2022-12-18T16:08:48;3.45;;;2.70;;
30872;SDS011;17579;42.690;2.586;2022-12-18T16:11:27;3.35;;;2.80;;
30872;SDS011;17579;42.690;2.586;2022-12-18T16:16:54;4.07;;;3.05;;
30872;SDS011;17579;42.690;2.586;2022-12-18T16:19:22;6.97;;;3.33;;
30872;SDS011;17579;42.690;2.586;2022-12-18T16:21:48;3.97;;;3.20;;
30872;SDS011;17579;42.690;2.586;2022-12-18T16:24:19;5.50;;;3.55;;
30872;SDS011;17579;42.690;2.586;2022-12-18T16:26:47;4.55;;;3.63;;
30872;SDS011;17579;42.690;2.586;2022-12-18T16:29:13;3.92;;;3.20;;
30872;SDS011;17579;42.690;2.586;2022-12-18T16:31:38;5.05;;;3.65;;
30872;SDS011;17579;42.690;2.586;2022-12-18T16:34:11;3.42;;;3.13;;
30872;SDS011;17579;42.690;2.586;2022-12-18T16:36:51;5.38;;;3.50;;
30872;SDS011;17579;42.690;2.586;2022-12-18T16:39:19;3.85;;;3.47;;
30872;SDS011;17579;42.690;2.586;2022-12-18T16:41:45;5.22;;;3.50;;
30872;SDS011;17579;42.690;2.586;2022-12-18T16:44:11;4.13;;;3.25;;
30872;SDS011;17579;42.690;2.586;2022-12-18T16:46:37;5.20;;;3.50;;
30872;SDS011;17579;42.690;2.586;2022-12-18T16:49:04;5.13;;;3.30;;
30872;SDS011;17579;42.690;2.586;2022-12-18T16:51:30;3.13;;;2.83;;
30872;SDS011;17579;42.690;2.586;2022-12-18T16:53:56;4.80;;;3.20;;
30872;SDS011;17579;42.690;2.586;2022-12-18T16:56:21;3.25;;;2.95;;
30872;SDS011;17579;42.690;2.586;2022-12-18T16:58:51;3.67;;;3.13;;
30872;SDS011;17579;42.690;2.586;2022-12-18T17:01:17;4.78;;;2.72;;
30872;SDS011;17579;42.690;2.586;2022-12-18T17:03:42;4.63;;;3.03;;